Time;durP1;ratioP1;P1;durP2;ratioP2;P2;SDS_P1;SDS_P2;PMS_P1;PMS_P2;Temp;Humidity;BMP_temperature;BMP_pressure;BME280_temperature;BME280_humidity;BME280_pressure;Samples;Min_cycle;Max_cycle;Signal;HPM_P1;HPM_P2
2022/08/15 00:01:36;;;;;;;2.67;2.47;;;;;;;25.54;48.40;97604.94;5002734;28;103082;-62
2022/08/15 00:04:11;;;;;;;4.55;3.10;;;;;;;25.79;49.71;97607.44;5006822;28;104877;-61
2022/08/15 00:06:59;;;;;;;2.80;2.53;;;;;;;25.81;49.09;97616.97;4999325;28;103116;-62
2022/08/15 00:09:29;;;;;;;3.43;2.90;;;;;;;25.82;48.40;97615.91;4993068;28;102832;-62
2022/08/15 00:12:17;;;;;;;2.45;2.10;;;;;;;25.81;48.73;97611.56;4986480;28;102781;-62
2022/08/15 00:15:04;;;;;;;2.90;2.60;;;;;;;25.66;48.41;97608.47;4996636;28;103555;-61
2022/08/15 00:17:36;;;;;;;2.20;2.00;;;;;;;25.74;48.36;97597.31;4992772;28;103513;-61
2022/08/15 00:20:17;;;;;;;3.88;2.95;;;;;;;25.48;48.84;97605.84;5001498;28;102797;-62
2022/08/15 00:22:51;;;;;;;4.50;2.90;;;;;;;24.90;49.93;97597.47;4993954;28;102746;-62
2022/08/15 00:25:22;;;;;;;3.60;3.28;;;;;;;24.99;49.94;97598.81;5002885;28;103524;-62
2022/08/15 00:27:53;;;;;;;2.60;2.40;;;;;;;25.35;48.90;97606.00;4993239;28;103299;-62
2022/08/15 00:30:24;;;;;;;2.55;2.35;;;;;;;25.49;49.00;97606.69;5001427;28;102874;-62
2022/08/15 00:32:55;;;;;;;3.77;2.63;;;;;;;25.49;48.79;97612.88;4982792;28;103782;-62
2022/08/15 00:35:47;;;;;;;4.05;2.65;;;;;;;25.25;49.93;97595.75;4992826;28;104060;-62
2022/08/15 00:38:26;;;;;;;4.85;3.33;;;;;;;24.75;50.42;97583.53;4989290;28;103545;-62
2022/08/15 00:44:04;;;;;;;3.53;2.43;;;;;;;25.05;49.95;97597.91;4981114;28;103951;-61
2022/08/15 00:46:39;;;;;;;2.88;2.30;;;;;;;25.27;48.91;97611.72;4995127;28;103217;-62
2022/08/15 00:49:09;;;;;;;2.65;2.40;;;;;;;25.35;49.15;97622.22;4980092;28;103262;-62
2022/08/15 00:51:44;;;;;;;3.10;2.80;;;;;;;25.33;50.37;97624.34;5000980;28;102619;-61
2022/08/15 00:54:26;;;;;;;3.40;2.70;;;;;;;25.34;50.39;97640.34;5007814;27;104200;-62
2022/08/15 00:57:18;;;;;;;3.90;3.30;;;;;;;25.05;51.46;97637.59;5000394;28;103306;-62
2022/08/15 01:00:12;;;;;;;4.30;3.60;;;;;;;24.56;53.39;97634.00;5001950;28;104129;-62
2022/08/15 01:03:06;;;;;;;3.45;3.00;;;;;;;24.35;54.33;97637.16;4975438;28;102881;-61
2022/08/15 01:05:42;;;;;;;4.00;3.20;;;;;;;24.30;55.97;97633.47;4996065;28;104507;-63
2022/08/15 01:08:16;;;;;;;3.20;3.00;;;;;;;24.53;56.04;97615.59;4977430;28;103601;-63
2022/08/15 01:10:48;;;;;;;3.22;2.92;;;;;;;24.78;54.96;97619.03;5000574;28;103274;-62
2022/08/15 01:13:30;;;;;;;3.13;2.93;;;;;;;24.78;54.87;97616.31;4994522;28;102943;-62
2022/08/15 01:16:18;;;;;;;3.42;3.13;;;;;;;24.82;56.57;97607.78;4978938;28;102739;-63
2022/08/15 01:19:10;;;;;;;3.17;2.97;;;;;;;24.69;57.05;97601.47;4993263;28;104025;-62
2022/08/15 01:22:02;;;;;;;4.00;3.35;;;;;;;24.51;58.41;97609.56;4991150;28;103073;-63
2022/08/15 01:24:47;;;;;;;4.50;3.37;;;;;;;23.97;59.53;97614.88;5003944;28;102691;-62
2022/08/15 01:27:39;;;;;;;3.05;2.45;;;;;;;24.35;57.89;97615.56;4983982;28;104533;-62
2022/08/15 01:30:12;;;;;;;2.65;2.45;;;;;;;24.47;58.18;97613.78;5001802;27;103447;-62
2022/08/15 01:33:01;;;;;;;2.50;2.30;;;;;;;24.60;57.56;97628.97;4976403;28;103485;-62
2022/08/15 01:35:30;;;;;;;2.50;2.30;;;;;;;24.62;57.69;97627.72;4974999;28;102732;-63
2022/08/15 01:37:59;;;;;;;2.57;2.37;;;;;;;24.58;57.26;97625.69;4981798;28;102920;-62
2022/08/15 01:40:47;;;;;;;2.77;2.57;;;;;;;24.61;57.13;97625.25;4987830;28;103322;-63
2022/08/15 01:43:28;;;;;;;2.75;2.55;;;;;;;24.64;57.75;97622.94;4992509;28;103217;-62
2022/08/15 01:46:02;;;;;;;2.28;2.08;;;;;;;24.69;55.52;97623.06;4984509;28;102786;-62
2022/08/15 01:48:41;;;;;;;2.85;2.65;;;;;;;24.59;55.77;97621.94;4982207;28;102927;-62
2022/08/15 01:51:12;;;;;;;2.90;2.70;;;;;;;24.59;55.06;97633.56;4983390;28;104149;-62
2022/08/15 01:53:48;;;;;;;3.45;3.10;;;;;;;24.45;55.33;97632.03;4981251;28;105141;-62
2022/08/15 01:56:31;;;;;;;3.17;2.87;;;;;;;24.47;55.40;97632.66;4978462;28;102929;-61
2022/08/15 01:59:11;;;;;;;3.75;3.45;;;;;;;24.27;55.58;97644.69;4980334;28;102866;-62
2022/08/15 02:01:45;;;;;;;3.10;2.83;;;;;;;24.45;55.06;97633.94;4974569;28;103464;-62
2022/08/15 02:04:25;;;;;;;2.67;2.47;;;;;;;24.56;54.56;97631.31;4977606;28;103428;-62
2022/08/15 02:06:53;;;;;;;3.40;3.10;;;;;;;24.59;54.05;97630.84;4977225;28;103024;-62
2022/08/15 02:09:28;;;;;;;3.83;3.50;;;;;;;24.43;54.14;97639.56;5008553;27;106602;-61
2022/08/15 02:12:24;;;;;;;2.73;2.53;;;;;;;24.58;53.76;97626.53;4981555;28;103345;-62
2022/08/15 02:15:19;;;;;;;3.30;3.00;;;;;;;24.37;54.77;97635.03;4985311;28;103237;-62
2022/08/15 02:17:49;;;;;;;2.90;2.70;;;;;;;24.49;54.17;97625.16;4992811;28;103462;-62
2022/08/15 02:20:20;;;;;;;3.53;3.22;;;;;;;24.41;54.00;97641.66;4986931;28;103120;-62
2022/08/15 02:22:53;;;;;;;3.77;3.40;;;;;;;24.42;54.27;97632.50;4984015;28;103358;-62
2022/08/15 02:25:21;;;;;;;3.20;3.00;;;;;;;24.35;54.46;97631.75;4980054;28;103209;-62
2022/08/15 02:27:54;;;;;;;3.95;3.55;;;;;;;24.07;55.40;97634.06;4994806;28;102926;-62
2022/08/15 02:30:28;;;;;;;4.30;3.70;;;;;;;23.93;56.07;97632.53;5004787;28;103134;-62
2022/08/15 02:33:00;;;;;;;4.32;3.50;;;;;;;23.83;56.41;97637.59;4982251;28;103961;-62
2022/08/15 02:35:29;;;;;;;5.30;3.67;;;;;;;23.91;56.67;97634.63;4972664;28;103217;-62
2022/08/15 02:38:04;;;;;;;3.43;3.17;;;;;;;24.03;56.65;97633.69;4985194;28;102837;-62
2022/08/15 02:40:46;;;;;;;4.32;3.22;;;;;;;24.24;55.88;97635.19;4986234;28;103941;-62
2022/08/15 02:43:22;;;;;;;4.97;3.60;;;;;;;24.33;55.58;97631.16;4980930;28;103244;-62
2022/08/15 02:45:51;;;;;;;3.00;2.80;;;;;;;24.25;55.96;97636.84;4979484;28;104190;-61
2022/08/15 02:48:48;;;;;;;3.38;3.08;;;;;;;24.42;55.43;97648.69;4973834;28;102847;-61
2022/08/15 02:51:26;;;;;;;4.75;3.63;;;;;;;24.40;55.63;97641.88;4984435;28;104059;-62
2022/08/15 02:53:55;;;;;;;2.95;2.65;;;;;;;24.46;55.82;97635.56;4978778;27;103793;-61
2022/08/15 02:56:28;;;;;;;2.50;2.30;;;;;;;24.48;55.96;97639.69;4979619;28;105252;-62
2022/08/15 02:59:01;;;;;;;2.90;2.70;;;;;;;24.42;56.27;97647.88;4983853;28;102973;-62
2022/08/15 03:01:42;;;;;;;5.38;3.80;;;;;;;24.02;57.56;97648.22;4998098;28;103699;-62
2022/08/15 03:04:15;;;;;;;3.28;2.92;;;;;;;24.19;57.12;97649.34;4980480;28;103279;-61
2022/08/15 03:06:56;;;;;;;5.53;3.65;;;;;;;24.25;57.10;97650.34;4981757;28;103231;-62
2022/08/15 03:09:26;;;;;;;3.55;3.20;;;;;;;24.23;56.94;97655.09;4976544;28;102715;-62
2022/08/15 03:12:04;;;;;;;3.63;3.27;;;;;;;;;;4983847;28;102834;-62
2022/08/15 03:14:50;;;;;;;6.57;3.60;;;;;;;24.11;57.47;97656.91;4986354;28;103117;-61
2022/08/15 03:17:18;;;;;;;6.40;3.73;;;;;;;24.12;57.62;97658.53;4986670;28;103162;-62
2022/08/15 03:19:47;;;;;;;4.57;3.20;;;;;;;24.03;57.94;97649.84;4989262;28;102851;-61
2022/08/15 03:22:21;;;;;;;4.50;3.50;;;;;;;24.14;57.91;97648.38;4985023;28;102671;-61
2022/08/15 03:25:10;;;;;;;4.88;3.40;;;;;;;23.82;58.91;97654.81;5003813;28;103483;-61
2022/08/15 03:27:40;;;;;;;3.50;2.90;;;;;;;23.61;59.87;97656.00;4994698;28;103222;-61
2022/08/15 03:30:12;;;;;;;4.35;3.33;;;;;;;23.66;59.86;97654.31;4991364;28;103148;-61
2022/08/15 03:32:51;;;;;;;3.90;3.10;;;;;;;23.65;60.09;97649.16;4985481;28;102806;-61
2022/08/15 03:35:25;;;;;;;4.73;2.80;;;;;;;23.67;60.06;97655.97;4987912;28;103558;-61
2022/08/15 03:37:58;;;;;;;3.17;2.88;;;;;;;23.78;59.70;97661.69;4981692;28;105171;-62
2022/08/15 03:40:34;;;;;;;2.93;2.63;;;;;;;23.98;58.62;97656.97;4988025;28;102677;-61
2022/08/15 03:43:06;;;;;;;3.30;3.00;;;;;;;23.54;60.62;97661.47;4997925;28;103930;-61
2022/08/15 03:45:41;;;;;;;4.10;3.20;;;;;;;23.84;59.50;97661.66;4984110;28;103271;-61
2022/08/15 03:48:11;;;;;;;3.80;2.70;;;;;;;23.83;59.30;97661.88;5005103;28;103284;-68
2022/08/15 03:50:53;;;;;;;5.10;2.90;;;;;;;23.40;60.92;97659.88;5001096;28;102591;-68
2022/08/15 03:53:28;;;;;;;3.50;2.85;;;;;;;23.58;60.57;97657.25;4989003;28;104138;-69
2022/08/15 03:55:58;;;;;;;4.87;2.87;;;;;;;23.51;60.68;97661.88;4976471;28;103941;-67
2022/08/15 03:58:31;;;;;;;3.53;2.80;;;;;;;23.61;60.78;97662.22;4982018;28;103329;-73
2022/08/15 04:01:11;;;;;;;3.63;2.75;;;;;;;23.60;60.95;97659.75;4980129;28;102897;-72
2022/08/15 04:03:42;;;;;;;3.08;2.60;;;;;;;23.59;61.21;97658.09;4977183;28;103089;-72
2022/08/15 04:06:13;;;;;;;3.20;2.90;;;;;;;23.80;60.25;97659.63;4980762;28;103127;-72
2022/08/15 04:08:50;;;;;;;4.38;3.20;;;;;;;23.74;60.68;97665.88;4982874;28;103374;-72
2022/08/15 04:11:42;;;;;;;3.93;3.07;;;;;;;23.73;60.95;97675.00;4983635;28;102963;-72
2022/08/15 04:14:18;;;;;;;3.58;3.05;;;;;;;23.48;61.54;97670.41;4980949;28;102775;-72
2022/08/15 04:17:09;;;;;;;3.10;2.80;;;;;;;23.80;60.62;97659.63;4977441;28;105043;-72
2022/08/15 04:19:50;;;;;;;2.80;2.50;;;;;;;23.89;59.93;97655.63;4980396;28;105532;-73
2022/08/15 04:22:39;;;;;;;4.07;2.47;;;;;;;23.95;60.06;97660.09;4985838;28;102772;-72
2022/08/15 04:25:27;;;;;;;3.65;2.95;;;;;;;23.73;60.87;97661.53;4983057;28;103736;-72
2022/08/15 04:28:17;;;;;;;4.37;2.73;;;;;;;23.39;62.24;97674.41;4979619;28;105190;-73
2022/08/15 04:31:08;;;;;;;2.50;2.30;;;;;;;23.78;60.95;97676.00;4978175;28;103198;-65
2022/08/15 04:33:45;;;;;;;3.15;2.83;;;;;;;23.51;61.82;97677.22;4984146;28;102754;-68
2022/08/15 04:36:33;;;;;;;3.40;2.72;;;;;;;23.65;61.29;97671.53;4972228;28;102808;-67
2022/08/15 04:39:03;;;;;;;5.33;2.90;;;;;;;23.59;61.85;97680.50;5001427;28;103222;-62
2022/08/15 04:41:40;;;;;;;3.22;2.75;;;;;;;23.33;63.03;97675.22;4979275;28;103363;-62
2022/08/15 04:44:20;;;;;;;3.00;2.70;;;;;;;23.38;63.27;97696.97;4983156;28;102973;-67
2022/08/15 04:46:59;;;;;;;2.67;2.47;;;;;;;23.46;63.06;97696.75;4995308;28;102686;-62
2022/08/15 04:49:30;;;;;;;4.45;2.92;;;;;;;23.24;63.85;97690.00;4993429;28;104498;-62
2022/08/15 04:52:08;;;;;;;4.57;3.33;;;;;;;23.27;63.61;97694.94;4980552;28;103089;-68
2022/08/15 04:54:36;;;;;;;4.27;3.37;;;;;;;23.42;63.48;97695.53;4973250;28;102868;-62
2022/08/15 04:57:25;;;;;;;5.40;2.80;;;;;;;23.13;64.21;97701.44;4983349;28;103115;-67
2022/08/15 04:59:57;;;;;;;3.22;2.80;;;;;;;23.16;64.43;97692.13;4983083;28;104723;-67
2022/08/15 05:02:59;;;;;;;3.13;2.38;;;;;;;23.33;63.73;97685.16;4975304;28;103661;-67
2022/08/15 05:05:31;;;;;;;2.83;2.30;;;;;;;23.57;62.84;97685.28;5009193;27;102769;-67
2022/08/15 05:08:05;;;;;;;3.30;2.70;;;;;;;23.25;63.55;97690.81;4984972;28;102693;-67
2022/08/15 05:10:42;;;;;;;3.33;2.78;;;;;;;23.17;64.40;97693.75;4973395;28;103988;-66
2022/08/15 05:13:15;;;;;;;3.50;2.45;;;;;;;22.94;65.20;97691.56;4976390;28;106135;-67
2022/08/15 05:15:47;;;;;;;3.33;2.63;;;;;;;22.75;65.22;97684.38;4977666;28;102829;-67
2022/08/15 05:18:26;;;;;;;2.72;2.30;;;;;;;22.89;64.57;97683.31;4981090;28;104052;-67
2022/08/15 05:20:58;;;;;;;3.40;2.22;;;;;;;23.25;63.36;97688.13;4963660;28;103270;-67
2022/08/15 05:23:29;;;;;;;3.53;2.58;;;;;;;22.85;64.65;97687.47;4962836;28;103278;-63
2022/08/15 05:26:04;;;;;;;2.67;2.40;;;;;;;22.93;63.65;97679.97;4964723;28;102905;-63
2022/08/15 05:28:52;;;;;;;2.80;2.20;;;;;;;23.16;62.87;97687.53;4969812;28;102724;-63
2022/08/15 05:31:28;;;;;;;2.33;2.13;;;;;;;22.91;63.85;97682.06;4973972;28;105964;-71
2022/08/15 05:34:04;;;;;;;2.58;2.17;;;;;;;22.46;64.91;97685.66;4976221;28;105553;-71
2022/08/15 05:36:43;;;;;;;2.63;2.00;;;;;;;22.87;63.58;97680.00;4978965;28;103036;-71
2022/08/15 05:39:19;;;;;;;4.13;2.30;;;;;;;22.44;65.27;97677.81;4970074;28;103942;-71
2022/08/15 05:42:01;;;;;;;4.10;2.50;;;;;;;22.40;65.27;97673.88;4975912;28;103561;-71
2022/08/15 05:44:48;;;;;;;5.50;2.22;;;;;;;22.63;64.46;97677.97;4975394;28;103282;-71
2022/08/15 05:47:33;;;;;;;2.63;1.88;;;;;;;22.63;64.51;97672.56;4975638;28;103003;-71
2022/08/15 05:50:08;;;;;;;2.33;1.90;;;;;;;22.90;63.37;97679.59;4972309;27;102810;-71
2022/08/15 05:52:49;;;;;;;4.03;2.20;;;;;;;22.78;63.81;97679.41;4976538;28;105339;-72
2022/08/15 05:55:27;;;;;;;2.58;2.35;;;;;;;23.16;62.39;97681.34;4975555;28;103179;-65
2022/08/15 05:58:10;;;;;;;2.60;2.00;;;;;;;22.83;63.23;97684.97;4986401;28;103009;-66
2022/08/15 06:01:05;;;;;;;2.53;2.20;;;;;;;22.77;64.02;97674.22;4974956;28;104131;-66
2022/08/15 06:03:48;;;;;;;3.15;2.22;;;;;;;22.65;64.22;97670.56;4979571;28;103697;-66
2022/08/15 06:06:23;;;;;;;2.65;2.20;;;;;;;22.80;63.54;97666.56;4985216;28;105134;-66
2022/08/15 06:09:02;;;;;;;4.05;2.08;;;;;;;22.91;63.29;97665.06;4984425;28;102878;-66
2022/08/15 06:11:39;;;;;;;3.33;1.75;;;;;;;23.21;62.16;97658.09;4981489;28;102802;-65
2022/08/15 06:14:24;;;;;;;3.07;1.70;;;;;;;23.22;62.30;97657.03;4974388;28;105581;-66
2022/08/15 06:17:10;;;;;;;2.78;1.80;;;;;;;23.21;62.08;97651.88;4962278;28;106110;-65
2022/08/15 06:19:44;;;;;;;2.08;1.88;;;;;;;23.61;61.07;97650.59;4947886;28;103234;-65
2022/08/15 06:22:24;;;;;;;1.70;1.60;;;;;;;23.71;60.11;97659.06;4971866;28;104335;-65
2022/08/15 06:25:09;;;;;;;1.77;1.50;;;;;;;23.84;59.72;97668.91;4967645;28;104075;-65
2022/08/15 06:27:50;;;;;;;2.33;1.97;;;;;;;23.35;61.95;97689.31;4971746;28;103246;-65
2022/08/15 06:30:33;;;;;;;3.03;2.00;;;;;;;23.37;61.87;97708.78;4974250;28;102713;-64
2022/08/15 06:33:13;;;;;;;3.08;1.92;;;;;;;23.44;63.08;97701.50;4979935;28;103943;-66
2022/08/15 06:35:54;;;;;;;3.42;2.10;;;;;;;23.07;65.62;97694.22;4969243;27;105089;-65
2022/08/15 06:38:34;;;;;;;2.70;2.00;;;;;;;23.28;65.58;97699.28;4987100;28;105672;-66
2022/08/15 06:41:22;;;;;;;3.35;1.90;;;;;;;23.48;65.26;97704.63;4975858;28;103075;-66
2022/08/15 06:43:54;;;;;;;2.63;1.85;;;;;;;23.74;63.58;97709.03;4975019;28;103767;-65
2022/08/15 06:46:33;;;;;;;1.92;1.80;;;;;;;23.78;63.33;97712.91;4972529;28;103292;-65
2022/08/15 06:49:19;;;;;;;2.72;1.95;;;;;;;23.64;63.45;97710.31;4972946;28;103316;-65
2022/08/15 06:51:51;;;;;;;2.40;2.10;;;;;;;23.23;65.65;97712.59;4967731;28;104919;-65
2022/08/15 06:54:24;;;;;;;2.15;1.95;;;;;;;23.25;65.38;97715.06;4972074;28;104310;-65
2022/08/15 06:57:15;;;;;;;2.30;2.10;;;;;;;23.38;65.74;97725.81;4989397;28;105574;-65
2022/08/15 06:59:59;;;;;;;3.28;2.20;;;;;;;23.51;64.24;97715.78;4978399;28;103272;-65
2022/08/15 07:02:49;;;;;;;2.87;2.20;;;;;;;23.03;64.80;97701.06;4983526;28;102897;-65
2022/08/15 07:05:24;;;;;;;2.85;2.30;;;;;;;23.31;64.38;97706.94;4976581;28;102751;-66
2022/08/15 07:08:04;;;;;;;3.33;2.20;;;;;;;23.35;64.40;97713.56;4975353;28;103535;-65
2022/08/15 07:10:45;;;;;;;2.50;2.30;;;;;;;23.45;63.71;97715.81;5009723;27;103176;-66
2022/08/15 07:13:37;;;;;;;3.33;2.20;;;;;;;23.26;63.31;97717.56;4977985;28;102707;-66
2022/08/15 07:16:31;;;;;;;3.05;2.10;;;;;;;23.48;62.28;97716.22;4979202;28;104233;-66
2022/08/15 07:19:02;;;;;;;2.73;2.50;;;;;;;23.26;63.14;97719.41;4979660;28;103291;-66
2022/08/15 07:21:47;;;;;;;2.30;2.10;;;;;;;23.20;62.91;97714.88;4982500;28;103362;-66
2022/08/15 07:24:29;;;;;;;3.03;2.07;;;;;;;23.60;61.95;97717.19;4998916;28;102942;-66
2022/08/15 07:27:09;;;;;;;2.80;1.97;;;;;;;23.79;60.96;97714.56;4981085;28;103104;-66
2022/08/15 07:29:47;;;;;;;2.85;2.00;;;;;;;23.75;61.02;97716.88;4971673;28;105328;-66
2022/08/15 07:32:30;;;;;;;3.20;2.08;;;;;;;24.03;60.43;97719.16;4991049;28;103240;-66
2022/08/15 07:35:16;;;;;;;3.67;2.30;;;;;;;24.33;59.90;97720.22;4981109;28;104257;-66
2022/08/15 07:37:56;;;;;;;2.20;2.00;;;;;;;24.10;60.53;97723.50;4985831;28;102796;-66
2022/08/15 07:40:29;;;;;;;3.08;2.15;;;;;;;24.15;59.82;97726.38;4985255;28;104101;-66
2022/08/15 07:43:05;;;;;;;2.50;1.83;;;;;;;25.13;58.09;97716.47;4973215;28;103221;-67
2022/08/15 07:45:38;;;;;;;3.40;2.20;;;;;;;25.38;56.52;97719.06;4998917;28;102726;-66
2022/08/15 07:48:25;;;;;;;2.00;1.77;;;;;;;25.52;55.74;97720.56;4994335;28;102908;-66
2022/08/15 07:51:22;;;;;;;2.17;1.90;;;;;;;26.03;54.08;97716.50;4978540;28;105632;-62
2022/08/15 07:54:19;;;;;;;2.42;1.73;;;;;;;26.16;53.67;97717.16;4976422;28;104113;-68
2022/08/15 07:57:20;;;;;;;4.65;2.10;;;;;;;26.36;53.81;97728.47;4972532;28;104044;-68
2022/08/15 08:00:17;;;;;;;2.75;2.10;;;;;;;26.38;53.95;97720.13;4993790;28;103121;-68
2022/08/15 08:03:13;;;;;;;2.77;2.00;;;;;;;26.77;51.76;97724.84;4989726;28;103202;-68
2022/08/15 08:05:53;;;;;;;2.55;1.90;;;;;;;26.67;52.40;97718.34;4975250;28;103220;-68
2022/08/15 08:08:26;;;;;;;3.20;1.93;;;;;;;26.26;53.09;97722.00;4973082;28;103041;-68
2022/08/15 08:11:23;;;;;;;2.00;1.80;;;;;;;26.38;52.44;97726.38;4972847;28;103769;-68
2022/08/15 08:14:00;;;;;;;2.75;1.77;;;;;;;26.38;51.91;97733.66;4975356;28;103047;-68
2022/08/15 08:16:38;;;;;;;2.10;1.70;;;;;;;26.18;52.51;97730.47;4979725;28;103211;-68
2022/08/15 08:19:14;;;;;;;2.43;1.90;;;;;;;26.26;52.83;97732.81;4978111;28;102809;-68
2022/08/15 08:21:52;;;;;;;2.40;1.73;;;;;;;27.06;50.61;97732.00;4995575;28;102772;-68
2022/08/15 08:24:31;;;;;;;2.78;1.60;;;;;;;26.91;50.95;97737.13;4983756;28;103263;-68
2022/08/15 08:27:09;;;;;;;3.03;1.70;;;;;;;26.09;51.32;97731.81;4975109;28;105272;-68
2022/08/15 08:29:49;;;;;;;2.13;1.60;;;;;;;26.61;50.40;97736.38;4997702;28;103111;-69
2022/08/15 08:32:27;;;;;;;1.88;1.67;;;;;;;27.67;49.33;97722.44;4979350;28;102662;-68
2022/08/15 08:35:07;;;;;;;2.67;1.90;;;;;;;27.97;47.16;97719.44;5004828;28;103281;-68
2022/08/15 08:37:43;;;;;;;2.10;1.90;;;;;;;27.93;48.37;97724.53;4998727;28;103194;-68
2022/08/15 08:43:39;;;;;;;2.15;1.80;;;;;;;29.22;46.12;97712.47;4978197;28;103157;-68
2022/08/15 08:46:20;;;;;;;3.10;2.08;;;;;;;28.18;48.70;97718.78;4990762;28;104053;-68
2022/08/15 08:49:10;;;;;;;2.30;1.90;;;;;;;28.55;48.63;97732.66;4995165;28;103185;-69
2022/08/15 08:51:56;;;;;;;2.60;2.15;;;;;;;27.58;49.41;97742.88;4987084;28;102623;-68
2022/08/15 08:54:29;;;;;;;4.80;2.50;;;;;;;27.54;49.68;97730.84;4997730;28;104611;-69
2022/08/15 08:57:23;;;;;;;3.15;2.08;;;;;;;28.52;48.30;97727.75;4999594;28;102957;-68
2022/08/15 08:59:54;;;;;;;3.10;2.15;;;;;;;28.21;47.43;97731.03;4993254;28;103199;-69
2022/08/15 09:02:27;;;;;;;3.55;2.35;;;;;;;28.27;48.66;97736.28;4990288;28;102748;-69
2022/08/15 09:05:02;;;;;;;2.88;2.20;;;;;;;28.17;48.00;97741.53;4989590;28;102708;-69
2022/08/15 09:07:45;;;;;;;4.63;2.60;;;;;;;28.46;47.43;97739.59;4974898;28;104524;-69
2022/08/15 09:10:23;;;;;;;3.63;2.60;;;;;;;29.17;46.25;97734.13;4992526;28;103176;-69
2022/08/15 09:15:51;;;;;;;3.38;1.90;;;;;;;30.06;45.58;97734.66;4964125;28;103209;-63
2022/08/15 09:18:28;;;;;;;4.72;2.50;;;;;;;28.92;46.43;97741.94;4966189;28;103408;-63
2022/08/15 09:20:58;;;;;;;2.97;2.03;;;;;;;29.75;43.63;97733.50;4959922;28;103409;-64
2022/08/15 09:23:33;;;;;;;2.53;2.17;;;;;;;29.57;44.02;97730.28;4968896;28;102770;-63
2022/08/15 09:26:11;;;;;;;2.15;1.95;;;;;;;29.89;43.77;97723.84;4991547;28;102878;-64
2022/08/15 09:28:59;;;;;;;3.45;2.30;;;;;;;27.77;48.77;97746.19;4982696;28;103098;-64
2022/08/15 09:31:34;;;;;;;1.80;1.67;;;;;;;28.70;46.94;97727.50;4990015;28;103010;-63
2022/08/15 09:35:34;;;;;;;2.60;1.83;;;;;;;29.17;45.64;97731.41;4963597;28;103160;-64
2022/08/15 09:38:56;;;;;;;3.53;2.17;;;;;;;29.05;45.16;97721.75;4985666;28;102925;-63
2022/08/15 09:41:40;;;;;;;3.10;2.20;;;;;;;29.70;45.13;97724.47;4971390;28;103083;-63
2022/08/15 09:44:42;;;;;;;2.13;1.93;;;;;;;29.12;44.95;97722.34;4986256;28;103197;-63
2022/08/15 09:47:51;;;;;;;2.05;1.85;;;;;;;29.46;43.90;97717.66;4984819;28;103097;-63
2022/08/15 09:51:08;;;;;;;3.00;1.85;;;;;;;30.59;41.83;97716.59;4972783;28;103115;-64
2022/08/15 09:53:51;;;;;;;2.10;1.80;;;;;;;30.78;42.27;97712.34;4993866;28;103814;-63
2022/08/15 09:56:31;;;;;;;2.97;1.77;;;;;;;30.86;41.74;97701.78;4995232;28;103387;-64
2022/08/15 09:59:11;;;;;;;3.17;1.90;;;;;;;31.78;40.05;97703.00;4975910;28;102660;-64
2022/08/15 10:01:53;;;;;;;2.65;1.80;;;;;;;29.11;44.43;97718.03;4987961;28;103546;-64
2022/08/15 10:04:40;;;;;;;2.72;1.92;;;;;;;30.88;41.77;97705.06;4990652;28;103375;-64
2022/08/15 10:07:33;;;;;;;3.05;2.35;;;;;;;31.53;41.07;97707.31;4996358;27;103173;-64
2022/08/15 10:10:18;;;;;;;2.30;1.92;;;;;;;29.82;43.42;97704.19;4986413;28;103165;-64
2022/08/15 10:13:28;;;;;;;2.20;1.88;;;;;;;29.85;43.11;97702.84;4988348;28;102687;-64
2022/08/15 10:15:58;;;;;;;2.72;2.10;;;;;;;29.88;42.81;97705.06;4989045;28;104123;-64
2022/08/15 10:19:08;;;;;;;4.35;1.98;;;;;;;29.98;43.93;97699.72;4985918;28;103201;-64
2022/08/15 10:21:40;;;;;;;3.20;2.10;;;;;;;27.38;46.62;97704.47;4990825;28;102951;-64
2022/08/15 10:24:25;;;;;;;2.65;2.10;;;;;;;28.27;45.94;97697.47;4992896;28;103680;-63
2022/08/15 10:27:20;;;;;;;3.85;1.80;;;;;;;29.89;43.89;97691.19;4991341;28;103501;-64
2022/08/15 10:29:53;;;;;;;2.00;1.65;;;;;;;30.93;41.88;97685.22;4990571;28;103272;-64
2022/08/15 10:32:40;;;;;;;1.70;1.60;;;;;;;29.70;42.49;97692.59;4991448;28;102773;-64
2022/08/15 10:35:41;;;;;;;2.58;1.80;;;;;;;29.04;43.34;97687.47;4991346;28;103035;-64
2022/08/15 10:38:13;;;;;;;3.05;1.65;;;;;;;30.24;41.91;97678.97;4997761;28;103270;-64
2022/08/15 10:41:14;;;;;;;3.08;1.80;;;;;;;30.03;42.01;97675.28;4990688;28;103516;-64
2022/08/15 10:43:55;;;;;;;2.15;1.95;;;;;;;30.43;41.72;97675.59;4974475;28;103010;-64
2022/08/15 10:46:37;;;;;;;2.13;1.92;;;;;;;29.55;43.17;97672.59;4992874;28;102816;-64
2022/08/15 10:49:23;;;;;;;2.92;1.95;;;;;;;29.24;43.90;97671.44;4996811;28;103372;-64
2022/08/15 10:52:24;;;;;;;2.28;1.80;;;;;;;30.04;41.80;97666.00;4988530;28;103399;-64
2022/08/15 10:55:23;;;;;;;2.30;1.77;;;;;;;29.15;43.90;97667.47;4986422;28;102806;-64
2022/08/15 10:58:14;;;;;;;2.43;1.77;;;;;;;28.95;42.73;97662.59;4984549;28;102813;-64
2022/08/15 11:00:51;;;;;;;2.00;1.60;;;;;;;30.37;40.61;97657.56;4982466;28;103255;-64
2022/08/15 11:03:26;;;;;;;2.80;1.70;;;;;;;30.27;41.98;97659.38;4990736;28;103420;-65
2022/08/15 11:06:18;;;;;;;2.50;1.90;;;;;;;30.82;40.18;97650.78;4994511;28;102766;-64
2022/08/15 11:08:53;;;;;;;1.60;1.50;;;;;;;27.94;44.16;97660.22;4992690;28;102801;-64
2022/08/15 11:11:31;;;;;;;2.15;1.60;;;;;;;28.47;43.69;97659.72;4973985;28;103250;-64
2022/08/15 11:14:08;;;;;;;3.20;1.70;;;;;;;27.52;44.37;97657.03;4991268;28;102966;-69
2022/08/15 11:16:52;;;;;;;2.13;1.70;;;;;;;27.66;44.00;97657.56;4989297;28;102644;-70
2022/08/15 11:19:32;;;;;;;2.47;1.83;;;;;;;28.82;42.86;97643.13;4996513;28;102904;-69
2022/08/15 11:22:30;;;;;;;1.90;1.50;;;;;;;28.29;43.73;97654.59;4979285;28;103621;-69
2022/08/15 11:25:00;;;;;;;5.20;1.67;;;;;;;27.87;44.27;97654.97;4994430;28;103353;-69
2022/08/15 11:27:31;;;;;;;1.60;1.50;;;;;;;29.98;40.19;97645.25;4974897;28;102948;-69
2022/08/15 11:30:03;;;;;;;1.87;1.40;;;;;;;31.09;38.83;97648.75;4998490;28;104863;-69
2022/08/15 11:32:52;;;;;;;2.30;1.47;;;;;;;31.58;37.09;97646.44;4991834;28;104074;-69
2022/08/15 11:35:25;;;;;;;2.67;1.73;;;;;;;30.55;38.11;97644.63;4982589;28;103179;-70
2022/08/15 11:37:57;;;;;;;2.85;1.60;;;;;;;29.94;39.13;97638.72;4993283;28;103338;-69
2022/08/15 11:40:29;;;;;;;2.77;1.70;;;;;;;30.37;39.29;97645.88;4993819;28;103338;-69
2022/08/15 11:42:59;;;;;;;3.30;2.00;;;;;;;28.63;42.32;97643.41;4996764;28;103547;-69
2022/08/15 11:45:45;;;;;;;1.77;1.65;;;;;;;30.24;40.44;97643.56;4990456;28;103209;-69
2022/08/15 11:48:28;;;;;;;1.88;1.40;;;;;;;30.34;39.97;97641.75;4972600;28;103456;-69
2022/08/15 11:51:08;;;;;;;3.78;1.67;;;;;;;29.82;41.40;97635.31;4996099;28;102990;-69
2022/08/15 11:53:41;;;;;;;2.65;1.73;;;;;;;28.84;42.44;97635.56;4995381;28;104392;-69
2022/08/15 11:56:09;;;;;;;2.93;2.10;;;;;;;30.27;39.58;97632.16;4986525;28;103463;-69
2022/08/15 11:58:58;;;;;;;2.30;1.75;;;;;;;30.73;39.28;97630.56;4993813;28;103007;-69
2022/08/15 12:01:33;;;;;;;2.03;1.63;;;;;;;31.37;37.92;97631.94;4976390;28;103895;-69
2022/08/15 12:04:05;;;;;;;4.10;1.80;;;;;;;29.64;40.46;97630.25;4990862;28;103645;-69
2022/08/15 12:06:56;;;;;;;4.30;2.10;;;;;;;31.13;38.40;97625.28;4994181;28;103299;-69
2022/08/15 12:09:28;;;;;;;2.13;1.80;;;;;;;32.04;36.97;97618.13;4993241;28;103433;-69
2022/08/15 12:12:32;;;;;;;2.88;2.10;;;;;;;30.10;40.73;97621.41;4991883;28;103233;-69
2022/08/15 12:15:10;;;;;;;2.35;2.00;;;;;;;30.82;39.21;97612.63;4997514;28;103000;-69
2022/08/15 12:18:06;;;;;;;3.15;1.77;;;;;;;30.74;38.92;97615.81;4992767;28;103492;-69
2022/08/15 12:20:45;;;;;;;2.90;2.20;;;;;;;31.34;37.27;97610.63;4980702;28;102974;-69
2022/08/15 12:23:24;;;;;;;2.47;2.00;;;;;;;31.54;37.50;97609.88;4992451;28;102784;-69
2022/08/15 12:25:53;;;;;;;4.18;2.10;;;;;;;29.93;39.00;97625.34;4999987;28;103596;-69
2022/08/15 12:28:22;;;;;;;2.67;2.15;;;;;;;31.68;37.00;97615.63;4990187;28;103212;-69
2022/08/15 12:31:21;;;;;;;4.03;1.80;;;;;;;31.25;37.24;97606.78;4996147;28;102683;-69
2022/08/15 12:34:02;;;;;;;2.40;1.90;;;;;;;30.13;39.53;97611.88;4991160;28;104067;-69
2022/08/15 12:36:51;;;;;;;2.17;1.80;;;;;;;31.02;37.71;97599.91;4997756;28;103265;-69
2022/08/15 12:39:40;;;;;;;3.88;2.13;;;;;;;31.11;37.49;97610.28;4987114;28;103343;-69